createdAt,value
2016-12-16T00:00:33.093Z,2.53
2016-12-16T00:01:32.773Z,2.51
2016-12-16T00:02:32.823Z,2.58
2016-12-16T00:03:32.692Z,2.49
2016-12-16T00:04:32.564Z,2.49
2016-12-16T00:05:32.494Z,2.55
2016-12-16T00:06:32.532Z,2.61
2016-12-16T00:07:33.277Z,2.63
2016-12-16T00:08:32.962Z,2.45
2016-12-16T00:09:32.486Z,2.66
2016-12-16T00:10:32.567Z,2.61
2016-12-16T00:11:32.697Z,2.67
2016-12-16T00:12:32.639Z,2.76
2016-12-16T00:13:32.567Z,2.71
2016-12-16T00:14:32.671Z,2.53
2016-12-16T00:15:32.672Z,2.56
2016-12-16T00:16:32.606Z,2.58
2016-12-16T00:17:32.639Z,2.64
2016-12-16T00:18:32.588Z,2.64
2016-12-16T00:19:32.951Z,2.56
2016-12-16T00:20:32.619Z,2.64
2016-12-16T00:21:32.537Z,2.58
2016-12-16T00:22:32.486Z,2.63
2016-12-16T00:23:33.756Z,2.59
2016-12-16T00:24:33.030Z,2.52
2016-12-16T00:25:32.574Z,2.74
2016-12-16T00:26:32.539Z,2.51
2016-12-16T00:27:32.492Z,2.77
2016-12-16T00:28:34.896Z,2.66
2016-12-16T00:29:32.947Z,2.67
2016-12-16T00:30:34.476Z,2.71
2016-12-16T00:31:32.553Z,2.82
2016-12-16T00:32:33.138Z,2.74
2016-12-16T00:33:32.580Z,2.71
2016-12-16T00:34:32.523Z,2.63
2016-12-16T00:35:32.515Z,2.64
2016-12-16T00:36:33.721Z,2.58
2016-12-16T00:37:32.547Z,2.56
2016-12-16T00:38:32.655Z,2.64
2016-12-16T00:39:37.268Z,2.64
2016-12-16T00:40:32.786Z,2.67
2016-12-16T00:41:39.152Z,2.63
2016-12-16T00:42:32.835Z,2.56
2016-12-16T00:43:38.307Z,2.56
2016-12-16T00:44:34.015Z,2.52
2016-12-16T00:45:38.295Z,2.64
2016-12-16T00:46:39.165Z,2.58
2016-12-16T00:47:39.608Z,2.79
2016-12-16T00:48:39.285Z,2.66
2016-12-16T00:49:39.535Z,2.53
2016-12-16T00:50:38.969Z,2.73
2016-12-16T00:51:40.074Z,2.77
2016-12-16T00:52:39.103Z,2.71
2016-12-16T00:53:40.000Z,2.7
2016-12-16T00:54:39.729Z,2.63
2016-12-16T00:55:40.080Z,2.55
2016-12-16T00:56:39.786Z,2.61
2016-12-16T00:57:40.031Z,2.66
2016-12-16T00:58:39.523Z,2.49
2016-12-16T00:59:40.171Z,2.49
2016-12-16T01:00:39.269Z,2.63
2016-12-16T01:01:38.938Z,2.49
2016-12-16T01:02:39.095Z,2.53
2016-12-16T01:03:38.564Z,2.59
2016-12-16T01:04:37.815Z,2.67
2016-12-16T01:05:37.865Z,2.51
2016-12-16T01:06:37.950Z,2.67
2016-12-16T01:07:32.515Z,2.56
2016-12-16T01:08:32.525Z,2.59
2016-12-16T01:09:32.560Z,2.56
2016-12-16T01:10:32.871Z,2.64
2016-12-16T01:11:32.683Z,2.55
2016-12-16T01:12:32.562Z,2.48
2016-12-16T01:13:32.822Z,2.59
2016-12-16T01:14:32.563Z,2.64
2016-12-16T01:15:32.542Z,2.51
2016-12-16T01:16:32.621Z,2.52
2016-12-16T01:17:32.608Z,2.64
2016-12-16T01:18:32.557Z,2.58
2016-12-16T01:19:32.607Z,2.41
2016-12-16T01:20:32.576Z,2.49
2016-12-16T01:21:32.541Z,2.51
2016-12-16T01:22:32.563Z,2.61
2016-12-16T01:23:32.755Z,2.45
2016-12-16T01:24:32.582Z,2.61
2016-12-16T01:25:32.533Z,2.55
2016-12-16T01:26:33.250Z,2.49
2016-12-16T01:27:32.541Z,2.46
2016-12-16T01:28:32.667Z,2.44
2016-12-16T01:29:32.589Z,2.46
2016-12-16T01:30:32.522Z,2.59
2016-12-16T01:31:32.547Z,2.49
2016-12-16T01:32:32.530Z,2.58
2016-12-16T01:33:32.588Z,2.31
2016-12-16T01:34:32.757Z,2.37
2016-12-16T01:35:32.687Z,2.28
2016-12-16T01:36:32.653Z,2.3
2016-12-16T01:37:32.570Z,2.41
2016-12-16T01:38:32.652Z,2.28
2016-12-16T01:39:32.658Z,2.38
2016-12-16T01:40:32.645Z,2.33
2016-12-16T01:41:32.682Z,2.2
2016-12-16T01:42:33.198Z,2.26
2016-12-16T01:43:32.595Z,2.23
2016-12-16T01:44:33.371Z,2.22
2016-12-16T01:45:32.743Z,2.13
2016-12-16T01:46:32.595Z,2.17
2016-12-16T01:47:32.852Z,2.28
2016-12-16T01:48:32.644Z,2.13
2016-12-16T01:49:32.595Z,2.19
2016-12-16T01:50:32.603Z,2.2
2016-12-16T01:51:32.830Z,2.22
2016-12-16T01:52:32.766Z,2.17
2016-12-16T01:53:32.625Z,2.15
2016-12-16T01:54:32.643Z,2.13
2016-12-16T01:55:32.790Z,2.19
2016-12-16T01:56:32.580Z,2.09
2016-12-16T01:57:32.664Z,2.19
2016-12-16T01:58:32.719Z,2.08
2016-12-16T01:59:32.607Z,2.1
2016-12-16T02:00:32.592Z,2.1
2016-12-16T02:01:32.795Z,1.97
2016-12-16T02:02:32.603Z,1.94
2016-12-16T02:03:32.842Z,2.08
2016-12-16T02:04:32.603Z,2.06
2016-12-16T02:05:32.931Z,2.08
2016-12-16T02:06:32.675Z,2.02
2016-12-16T02:07:32.966Z,2.01
2016-12-16T02:08:33.884Z,2.04
2016-12-16T02:09:32.617Z,1.99
2016-12-16T02:10:32.584Z,2.04
2016-12-16T02:11:32.688Z,2.04
2016-12-16T02:12:32.732Z,2.09
2016-12-16T02:13:32.721Z,1.93
2016-12-16T02:14:33.048Z,1.83
2016-12-16T02:15:32.747Z,1.94
2016-12-16T02:16:32.652Z,2.09
2016-12-16T02:17:32.614Z,1.91
2016-12-16T02:18:33.416Z,1.97
2016-12-16T02:19:32.697Z,1.91
2016-12-16T02:20:32.764Z,1.89
2016-12-16T02:21:32.830Z,1.91
2016-12-16T02:22:33.740Z,1.85
2016-12-16T02:23:32.680Z,1.82
2016-12-16T02:24:32.680Z,1.83
2016-12-16T02:25:32.654Z,1.62
2016-12-16T02:26:32.740Z,1.78
2016-12-16T02:27:33.691Z,1.8
2016-12-16T02:28:32.853Z,1.82
2016-12-16T02:29:32.708Z,1.68
2016-12-16T02:30:32.723Z,1.87
2016-12-16T02:31:32.834Z,1.76
2016-12-16T02:32:32.686Z,1.61
2016-12-16T02:33:32.668Z,1.68
2016-12-16T02:34:32.693Z,1.71
2016-12-16T02:35:33.077Z,1.72
2016-12-16T02:36:32.728Z,1.71
2016-12-16T02:37:32.737Z,1.64
2016-12-16T02:38:32.703Z,1.64
2016-12-16T02:39:32.806Z,1.68
2016-12-16T02:40:32.777Z,1.68
2016-12-16T02:41:32.787Z,1.69
2016-12-16T02:42:32.895Z,1.51
2016-12-16T02:43:33.060Z,1.68
2016-12-16T02:44:32.732Z,1.57
2016-12-16T02:45:32.758Z,1.58
2016-12-16T02:46:32.728Z,1.71
2016-12-16T02:47:32.691Z,1.52
2016-12-16T02:48:32.763Z,1.46
2016-12-16T02:49:32.701Z,1.58
2016-12-16T02:50:32.794Z,1.51
2016-12-16T02:51:32.854Z,1.69
2016-12-16T02:52:32.982Z,1.58
2016-12-16T02:53:32.705Z,1.61
2016-12-16T02:54:33.286Z,1.65
2016-12-16T02:55:32.726Z,1.61
2016-12-16T02:56:32.681Z,1.6
2016-12-16T02:57:32.707Z,1.65
2016-12-16T02:58:32.837Z,1.64
2016-12-16T02:59:33.531Z,1.6
2016-12-16T03:00:32.713Z,1.68
2016-12-16T03:01:32.749Z,1.57
2016-12-16T03:02:32.774Z,1.61
2016-12-16T03:03:32.787Z,1.54
2016-12-16T03:04:32.727Z,1.6
2016-12-16T03:05:32.694Z,1.44
2016-12-16T03:06:32.785Z,1.58
2016-12-16T03:07:32.779Z,1.62
2016-12-16T03:08:32.750Z,1.54
2016-12-16T03:09:33.135Z,1.62
2016-12-16T03:10:32.820Z,1.69
2016-12-16T03:11:32.781Z,1.51
2016-12-16T03:12:32.867Z,1.65
2016-12-16T03:13:32.789Z,1.58
2016-12-16T03:14:32.775Z,1.55
2016-12-16T03:15:32.763Z,1.58
2016-12-16T03:16:32.817Z,1.64
2016-12-16T03:17:32.831Z,1.65
2016-12-16T03:18:32.801Z,1.51
2016-12-16T03:19:32.809Z,1.57
2016-12-16T03:20:32.681Z,1.55
2016-12-16T03:21:33.315Z,1.71
2016-12-16T03:22:33.633Z,1.46
2016-12-16T03:23:32.718Z,1.47
2016-12-16T03:24:32.694Z,1.6
2016-12-16T03:25:32.664Z,1.55
2016-12-16T03:26:32.697Z,1.54
2016-12-16T03:27:32.659Z,1.46
2016-12-16T03:28:32.691Z,1.55
2016-12-16T03:29:32.701Z,1.43
2016-12-16T03:30:32.661Z,1.51
2016-12-16T03:31:32.686Z,1.46
2016-12-16T03:32:32.676Z,1.43
2016-12-16T03:33:32.703Z,1.43
2016-12-16T03:34:32.845Z,1.47
2016-12-16T03:35:32.705Z,1.39
2016-12-16T03:36:32.702Z,1.46
2016-12-16T03:37:32.812Z,1.44
2016-12-16T03:38:32.924Z,1.52
2016-12-16T03:39:32.763Z,1.37
2016-12-16T03:40:32.681Z,1.37
2016-12-16T03:41:32.721Z,1.43
2016-12-16T03:42:32.825Z,1.51
2016-12-16T03:43:32.687Z,1.42
2016-12-16T03:44:32.951Z,1.44
2016-12-16T03:45:32.685Z,1.42
2016-12-16T03:46:33.159Z,1.44
2016-12-16T03:47:32.689Z,1.54
2016-12-16T03:48:32.852Z,1.36
2016-12-16T03:49:33.553Z,1.5
2016-12-16T03:50:32.666Z,1.46
2016-12-16T03:51:32.826Z,1.54
2016-12-16T03:52:32.687Z,1.4
2016-12-16T03:53:32.969Z,1.61
2016-12-16T03:54:32.759Z,1.44
2016-12-16T03:55:32.748Z,1.44
2016-12-16T03:56:32.706Z,1.47
2016-12-16T03:57:32.756Z,1.43
2016-12-16T03:58:32.714Z,1.42
2016-12-16T03:59:32.809Z,1.43
2016-12-16T04:00:32.714Z,1.46
2016-12-16T04:01:32.688Z,1.43
2016-12-16T04:02:32.800Z,1.39
2016-12-16T04:03:32.783Z,1.43
2016-12-16T04:04:32.718Z,1.39
2016-12-16T04:05:32.732Z,1.4
2016-12-16T04:06:32.786Z,1.44
2016-12-16T04:07:33.193Z,1.33
2016-12-16T04:08:32.917Z,1.4
2016-12-16T04:09:32.693Z,1.22
2016-12-16T04:10:33.242Z,1.47
2016-12-16T04:11:32.704Z,1.37
2016-12-16T04:12:32.786Z,1.42
2016-12-16T04:13:32.729Z,1.33
2016-12-16T04:14:33.039Z,1.39
2016-12-16T04:15:32.832Z,1.42
2016-12-16T04:16:32.719Z,1.43
2016-12-16T04:17:32.714Z,1.37
2016-12-16T04:18:33.397Z,1.47
2016-12-16T04:19:32.807Z,1.37
2016-12-16T04:20:32.747Z,1.5
2016-12-16T04:21:33.047Z,1.42
2016-12-16T04:22:32.827Z,1.42
2016-12-16T04:23:32.737Z,1.44
2016-12-16T04:24:32.744Z,1.42
2016-12-16T04:25:32.949Z,1.42
2016-12-16T04:26:32.845Z,1.36
2016-12-16T04:27:32.780Z,1.33
2016-12-16T04:28:32.932Z,1.42
2016-12-16T04:29:33.420Z,1.22
2016-12-16T04:30:32.760Z,1.43
2016-12-16T04:31:32.853Z,1.24
2016-12-16T04:32:33.045Z,1.28
2016-12-16T04:33:32.883Z,1.25
2016-12-16T04:34:32.741Z,1.21
2016-12-16T04:35:32.735Z,1.34
2016-12-16T04:36:32.731Z,1.34
2016-12-16T04:37:32.882Z,1.28
2016-12-16T04:38:32.859Z,1.28
2016-12-16T04:39:32.747Z,1.29
2016-12-16T04:40:32.727Z,1.18
2016-12-16T04:41:32.733Z,1.37
2016-12-16T04:42:32.765Z,1.4
2016-12-16T04:43:32.758Z,1.24
2016-12-16T04:44:32.749Z,1.24
2016-12-16T04:45:33.037Z,1.33
2016-12-16T04:46:32.917Z,1.24
2016-12-16T04:47:32.766Z,1.44
2016-12-16T04:48:32.758Z,1.32
2016-12-16T04:49:32.955Z,1.28
2016-12-16T04:50:32.904Z,1.42
2016-12-16T04:51:32.909Z,1.39
2016-12-16T04:52:32.798Z,1.37
2016-12-16T04:53:32.816Z,1.43
2016-12-16T04:54:32.772Z,1.44
2016-12-16T04:55:32.808Z,1.54
2016-12-16T04:56:32.965Z,1.43
2016-12-16T04:57:32.774Z,1.37
2016-12-16T04:58:32.808Z,1.44
2016-12-16T04:59:32.810Z,1.47
2016-12-16T05:00:33.125Z,1.36
2016-12-16T05:01:32.776Z,1.39
2016-12-16T05:02:33.185Z,1.54
2016-12-16T05:03:32.807Z,1.42
2016-12-16T05:04:32.763Z,1.44
2016-12-16T05:05:32.768Z,1.39
2016-12-16T05:06:32.884Z,1.34
2016-12-16T05:07:32.789Z,1.22
2016-12-16T05:08:32.830Z,1.26
2016-12-16T05:09:32.906Z,1.26
2016-12-16T05:10:32.794Z,1.33
2016-12-16T05:11:32.778Z,1.25
2016-12-16T05:12:32.769Z,1.24
2016-12-16T05:13:32.812Z,1.19
2016-12-16T05:14:32.769Z,1.03
2016-12-16T05:15:32.849Z,1.15
2016-12-16T05:16:33.294Z,1.16
2016-12-16T05:17:32.900Z,1.03
2016-12-16T05:18:34.110Z,1.22
2016-12-16T05:19:32.805Z,1.01
2016-12-16T05:20:32.815Z,1.01
2016-12-16T05:21:32.920Z,0.97
2016-12-16T05:22:33.235Z,1.1
2016-12-16T05:23:33.815Z,1.1
2016-12-16T05:24:32.946Z,0.88
2016-12-16T05:25:32.802Z,0.94
2016-12-16T05:26:32.999Z,0.98
2016-12-16T05:27:32.821Z,1.04
2016-12-16T05:28:33.154Z,0.88
2016-12-16T05:29:32.805Z,1.01
2016-12-16T05:30:32.853Z,0.96
2016-12-16T05:31:32.804Z,0.88
2016-12-16T05:32:32.808Z,0.83
2016-12-16T05:33:32.818Z,0.86
2016-12-16T05:34:33.329Z,0.9
2016-12-16T05:35:32.812Z,0.89
2016-12-16T05:36:32.805Z,0.97
2016-12-16T05:37:33.287Z,0.89
2016-12-16T05:38:33.194Z,0.88
2016-12-16T05:39:32.808Z,0.94
2016-12-16T05:40:32.815Z,0.9
2016-12-16T05:41:32.812Z,0.98
2016-12-16T05:42:32.828Z,0.96
2016-12-16T05:43:32.848Z,0.97
2016-12-16T05:44:32.808Z,1.03
2016-12-16T05:45:33.702Z,1.08
2016-12-16T05:46:33.153Z,1.03
2016-12-16T05:47:32.885Z,1.22
2016-12-16T05:48:32.997Z,1.12
2016-12-16T05:49:32.812Z,1.15
2016-12-16T05:50:32.830Z,1.18
2016-12-16T05:51:32.831Z,1.18
2016-12-16T05:52:32.836Z,1.15
2016-12-16T05:53:33.164Z,1.16
2016-12-16T05:54:32.834Z,1.15
2016-12-16T05:55:33.767Z,1.16
2016-12-16T05:56:32.845Z,1.16
2016-12-16T05:57:33.100Z,1.22
2016-12-16T05:58:32.848Z,1.14
2016-12-16T05:59:32.943Z,1.14
2016-12-16T06:00:34.173Z,1.21
2016-12-16T06:01:32.882Z,1.19
2016-12-16T06:02:32.943Z,1.03
2016-12-16T06:03:32.934Z,1.12
2016-12-16T06:04:32.826Z,1.16
2016-12-16T06:05:32.836Z,1.1
2016-12-16T06:06:33.053Z,1.08
2016-12-16T06:07:33.428Z,1.08
2016-12-16T06:08:32.941Z,1.07
2016-12-16T06:09:32.973Z,0.98
2016-12-16T06:10:32.885Z,1.08
2016-12-16T06:11:33.004Z,1.04
2016-12-16T06:12:32.890Z,0.96
2016-12-16T06:13:32.952Z,1.04
2016-12-16T06:14:32.840Z,0.98
2016-12-16T06:15:32.876Z,0.98
2016-12-16T06:16:32.854Z,1
2016-12-16T06:17:33.155Z,0.97
2016-12-16T06:18:32.983Z,1.06
2016-12-16T06:19:32.845Z,1.07
2016-12-16T06:20:33.409Z,0.9
2016-12-16T06:21:32.842Z,0.86
2016-12-16T06:22:32.895Z,0.88
2016-12-16T06:23:32.897Z,0.96
2016-12-16T06:24:32.884Z,0.92
2016-12-16T06:25:33.020Z,0.9
2016-12-16T06:26:32.884Z,0.88
2016-12-16T06:27:32.843Z,0.89
2016-12-16T06:28:32.905Z,0.97
2016-12-16T06:29:32.935Z,0.86
2016-12-16T06:30:32.872Z,0.96
2016-12-16T06:31:33.159Z,1
2016-12-16T06:32:34.578Z,0.96
2016-12-16T06:33:34.048Z,0.82
2016-12-16T06:34:33.023Z,0.89
2016-12-16T06:35:32.953Z,0.92
2016-12-16T06:36:32.983Z,0.98
2016-12-16T06:37:32.869Z,0.89
2016-12-16T06:38:32.865Z,1.01
2016-12-16T06:39:32.879Z,0.85
2016-12-16T06:40:32.972Z,0.89
2016-12-16T06:41:32.913Z,0.8
2016-12-16T06:42:32.899Z,0.86
2016-12-16T06:43:32.890Z,0.8
2016-12-16T06:44:32.905Z,0.96
2016-12-16T06:45:32.977Z,0.75
2016-12-16T06:46:32.878Z,0.94
2016-12-16T06:47:32.871Z,0.89
2016-12-16T06:48:32.931Z,0.83
2016-12-16T06:49:32.894Z,0.94
2016-12-16T06:50:32.905Z,0.76
2016-12-16T06:51:32.865Z,0.76
2016-12-16T06:52:32.947Z,0.88
2016-12-16T06:53:32.905Z,0.9
2016-12-16T06:54:32.934Z,0.97
2016-12-16T06:55:33.104Z,0.85
2016-12-16T06:56:32.955Z,0.98
2016-12-16T06:57:32.933Z,0.88
2016-12-16T06:58:32.915Z,0.88
2016-12-16T06:59:32.901Z,0.98
2016-12-16T07:00:33.024Z,0.85
2016-12-16T07:01:32.931Z,0.9
2016-12-16T07:02:32.882Z,0.98
2016-12-16T07:03:32.976Z,0.88
2016-12-16T07:04:33.017Z,1
2016-12-16T07:05:32.956Z,0.9
2016-12-16T07:06:32.943Z,0.97
2016-12-16T07:07:32.958Z,0.86
2016-12-16T07:08:32.912Z,0.9
2016-12-16T07:09:32.916Z,0.88
2016-12-16T07:10:32.896Z,1
2016-12-16T07:11:32.909Z,0.9
2016-12-16T07:12:32.892Z,0.85
2016-12-16T07:13:32.925Z,0.88
2016-12-16T07:14:33.108Z,0.86
2016-12-16T07:15:32.916Z,0.9
2016-12-16T07:16:32.918Z,0.97
2016-12-16T07:17:33.792Z,1.03
2016-12-16T07:18:33.020Z,0.96
2016-12-16T07:19:33.015Z,1.01
2016-12-16T07:20:32.987Z,1.06
2016-12-16T07:21:33.417Z,1.08
2016-12-16T07:22:32.979Z,1.07
2016-12-16T07:23:33.035Z,1.03
2016-12-16T07:24:32.953Z,1.04
2016-12-16T07:25:32.912Z,0.96
2016-12-16T07:26:33.075Z,1.1
2016-12-16T07:27:32.951Z,1.18
2016-12-16T07:28:33.033Z,1.16
2016-12-16T07:29:32.959Z,1.25
2016-12-16T07:30:32.920Z,1.25
2016-12-16T07:31:33.008Z,1.15
2016-12-16T07:32:34.230Z,1.21
2016-12-16T07:33:33.920Z,1.04
2016-12-16T07:34:33.051Z,1.21
2016-12-16T07:35:32.955Z,1.15
2016-12-16T07:36:32.948Z,1.12
2016-12-16T07:37:33.088Z,1.16
2016-12-16T07:38:33.016Z,1.16
2016-12-16T07:39:33.057Z,1.33
2016-12-16T07:40:32.960Z,1.16
2016-12-16T07:41:32.933Z,1.19
2016-12-16T07:42:32.926Z,1.14
2016-12-16T07:43:32.962Z,1.01
2016-12-16T07:44:33.096Z,1.28
2016-12-16T07:45:32.976Z,1.12
2016-12-16T07:46:32.944Z,1.18
2016-12-16T07:47:33.152Z,1.28
2016-12-16T07:48:32.967Z,1.1
2016-12-16T07:49:33.046Z,1.18
2016-12-16T07:50:32.985Z,1.06
2016-12-16T07:51:32.982Z,1.14
2016-12-16T07:52:32.985Z,1.22
2016-12-16T07:53:33.200Z,1.16
2016-12-16T07:54:32.983Z,1.18
2016-12-16T07:55:33.046Z,1.32
2016-12-16T07:56:33.075Z,1.25
2016-12-16T07:57:32.966Z,1.25
2016-12-16T07:58:33.322Z,1.25
2016-12-16T07:59:33.023Z,1.32
2016-12-16T08:00:33.009Z,1.24
2016-12-16T08:01:33.429Z,1.21
2016-12-16T08:02:32.980Z,1.43
2016-12-16T08:03:33.054Z,1.26
2016-12-16T08:04:33.067Z,1.34
2016-12-16T08:05:32.987Z,1.43
2016-12-16T08:06:32.980Z,1.4
2016-12-16T08:07:33.226Z,1.44
2016-12-16T08:08:33.086Z,1.33
2016-12-16T08:09:33.054Z,1.65
2016-12-16T08:10:33.024Z,1.43
2016-12-16T08:11:33.119Z,1.52
2016-12-16T08:12:32.987Z,1.6
2016-12-16T08:13:33.013Z,1.54
2016-12-16T08:14:33.192Z,1.64
2016-12-16T08:15:32.978Z,1.73
2016-12-16T08:16:32.982Z,1.6
2016-12-16T08:17:32.998Z,1.58
2016-12-16T08:18:33.050Z,1.78
2016-12-16T08:19:32.983Z,1.85
2016-12-16T08:20:32.989Z,1.8
2016-12-16T08:21:32.983Z,1.78
2016-12-16T08:22:33.016Z,1.91
2016-12-16T08:23:32.988Z,1.85
2016-12-16T08:24:33.045Z,1.94
2016-12-16T08:25:33.002Z,1.91
2016-12-16T08:26:32.958Z,1.85
2016-12-16T08:27:32.962Z,1.97
2016-12-16T08:28:33.016Z,1.89
2016-12-16T08:29:33.068Z,1.9
2016-12-16T08:30:33.022Z,1.83
2016-12-16T08:31:33.028Z,1.91
2016-12-16T08:32:33.004Z,2.01
2016-12-16T08:33:33.021Z,2.15
2016-12-16T08:34:32.999Z,2.06
2016-12-16T08:35:33.012Z,2.04
2016-12-16T08:36:33.032Z,2.17
2016-12-16T08:37:33.038Z,2.08
2016-12-16T08:38:33.095Z,2.04
2016-12-16T08:39:33.036Z,2.09
2016-12-16T08:40:33.007Z,2.08
2016-12-16T08:41:32.998Z,2.2
2016-12-16T08:42:32.991Z,2.16
2016-12-16T08:43:33.025Z,2.31
2016-12-16T08:44:33.114Z,2.19
2016-12-16T08:45:32.984Z,2.38
2016-12-16T08:46:33.018Z,2.34
2016-12-16T08:47:32.996Z,2.26
2016-12-16T08:48:33.082Z,2.35
2016-12-16T08:49:33.017Z,2.34
2016-12-16T08:50:33.204Z,2.37
2016-12-16T08:51:33.075Z,2.35
2016-12-16T08:52:33.207Z,2.49
2016-12-16T08:53:34.094Z,2.58
2016-12-16T08:54:33.145Z,2.44
2016-12-16T08:55:33.215Z,2.48
2016-12-16T08:56:33.073Z,2.58
2016-12-16T08:57:33.007Z,2.61
2016-12-16T08:58:33.113Z,2.73
2016-12-16T08:59:33.059Z,2.67
2016-12-16T09:00:33.100Z,2.67
2016-12-16T09:01:33.064Z,2.73
2016-12-16T09:02:33.055Z,2.77
2016-12-16T09:03:33.048Z,2.77
2016-12-16T09:04:33.137Z,2.73
2016-12-16T09:05:33.055Z,2.84
2016-12-16T09:06:33.081Z,2.89
2016-12-16T09:07:33.324Z,2.77
2016-12-16T09:08:33.058Z,3.02
2016-12-16T09:09:34.193Z,2.87
2016-12-16T09:10:33.047Z,2.87
2016-12-16T09:11:33.220Z,2.94
2016-12-16T09:12:33.036Z,2.98
2016-12-16T09:13:33.030Z,2.98
2016-12-16T09:14:33.062Z,3.05
2016-12-16T09:15:33.098Z,3
2016-12-16T09:16:33.051Z,3.03
2016-12-16T09:17:33.043Z,3.09
2016-12-16T09:18:33.049Z,3.16
2016-12-16T09:19:34.788Z,3.03
2016-12-16T09:20:33.062Z,3.16
2016-12-16T09:21:33.054Z,3.23
2016-12-16T09:22:33.105Z,3.3
2016-12-16T09:23:33.065Z,3.23
2016-12-16T09:24:33.051Z,3.2
2016-12-16T09:25:33.705Z,3.24
2016-12-16T09:26:33.054Z,3.34
2016-12-16T09:27:33.734Z,3.3
2016-12-16T09:28:33.085Z,3.4
2016-12-16T09:29:33.033Z,3.25
2016-12-16T09:30:33.080Z,3.36
2016-12-16T09:31:33.071Z,3.43
2016-12-16T09:32:33.069Z,3.49
2016-12-16T09:33:33.432Z,3.44
2016-12-16T09:34:33.075Z,3.57
2016-12-16T09:35:33.100Z,3.46
2016-12-16T09:36:33.076Z,3.5
2016-12-16T09:37:33.088Z,3.5
2016-12-16T09:38:33.088Z,3.57
2016-12-16T09:39:33.096Z,3.65
2016-12-16T09:40:33.059Z,3.54
2016-12-16T09:41:33.092Z,3.6
2016-12-16T09:42:33.099Z,3.67
2016-12-16T09:43:33.463Z,3.76
2016-12-16T09:44:33.097Z,3.76
2016-12-16T09:45:33.197Z,3.72
2016-12-16T09:46:33.116Z,3.8
2016-12-16T09:47:33.111Z,3.72
2016-12-16T09:48:33.176Z,3.7
2016-12-16T09:49:33.092Z,3.76
2016-12-16T09:50:33.085Z,3.78
2016-12-16T09:51:33.075Z,3.83
2016-12-16T09:52:33.198Z,3.82
2016-12-16T09:53:33.073Z,3.88
2016-12-16T09:54:33.115Z,3.89
2016-12-16T09:55:33.070Z,3.94
2016-12-16T09:56:33.071Z,3.85
2016-12-16T09:57:33.088Z,3.97
2016-12-16T09:58:33.112Z,3.9
2016-12-16T09:59:33.099Z,3.92
2016-12-16T10:00:33.102Z,4.07
2016-12-16T10:01:33.089Z,4
2016-12-16T10:02:33.106Z,4.1
2016-12-16T10:03:33.134Z,4
2016-12-16T10:04:33.097Z,4.01
2016-12-16T10:05:33.121Z,4
2016-12-16T10:06:33.107Z,4.03
2016-12-16T10:07:33.131Z,3.97
2016-12-16T10:08:33.110Z,4.12
2016-12-16T10:09:33.390Z,4.06
2016-12-16T10:10:33.145Z,4.18
2016-12-16T10:11:33.538Z,4.16
2016-12-16T10:12:33.150Z,4.15
2016-12-16T10:13:33.120Z,4.04
2016-12-16T10:14:35.185Z,4.07
2016-12-16T10:15:33.689Z,4.18
2016-12-16T10:16:33.109Z,4.18
2016-12-16T10:17:33.108Z,4.06
2016-12-16T10:18:33.118Z,4.29
2016-12-16T10:19:33.113Z,4.33
2016-12-16T10:20:33.113Z,4.24
2016-12-16T10:21:33.160Z,4.29
2016-12-16T10:22:33.150Z,4.15
2016-12-16T10:23:33.142Z,4.26
2016-12-16T10:24:33.107Z,4.33
2016-12-16T10:25:33.125Z,4.26
2016-12-16T10:26:33.102Z,4.34
2016-12-16T10:27:33.152Z,4.37
2016-12-16T10:28:33.117Z,4.39
2016-12-16T10:29:33.132Z,4.29
2016-12-16T10:30:33.181Z,4.46
2016-12-16T10:31:33.163Z,4.4
2016-12-16T10:32:33.145Z,4.33
2016-12-16T10:33:33.128Z,4.52
2016-12-16T10:34:33.264Z,4.52
2016-12-16T10:35:33.103Z,4.43
2016-12-16T10:36:33.130Z,4.5
2016-12-16T10:37:33.166Z,4.44
2016-12-16T10:38:33.118Z,4.64
2016-12-16T10:39:33.136Z,4.58
2016-12-16T10:40:33.149Z,4.59
2016-12-16T10:41:33.125Z,4.58
2016-12-16T10:42:33.211Z,4.65
2016-12-16T10:43:33.219Z,4.59
2016-12-16T10:44:33.154Z,4.73
2016-12-16T10:45:33.185Z,4.55
2016-12-16T10:46:33.137Z,4.57
2016-12-16T10:47:33.126Z,4.64
2016-12-16T10:48:33.195Z,4.73
2016-12-16T10:49:33.155Z,4.76
2016-12-16T10:50:33.145Z,4.67
2016-12-16T10:51:33.172Z,4.69
2016-12-16T10:52:33.159Z,4.64
2016-12-16T10:53:33.185Z,4.65
2016-12-16T10:54:34.081Z,4.8
2016-12-16T10:55:33.155Z,4.75
2016-12-16T10:56:33.173Z,4.98
2016-12-16T10:57:33.151Z,4.8
2016-12-16T10:58:33.147Z,4.86
2016-12-16T10:59:33.167Z,4.76
2016-12-16T11:00:33.187Z,4.8
2016-12-16T11:01:33.205Z,4.86
2016-12-16T11:02:33.225Z,4.94
2016-12-16T11:03:33.188Z,4.84
2016-12-16T11:04:33.183Z,4.94
2016-12-16T11:05:33.164Z,4.8
2016-12-16T11:06:33.180Z,4.77
2016-12-16T11:07:33.249Z,4.94
2016-12-16T11:08:33.172Z,4.88
2016-12-16T11:09:33.313Z,4.91
2016-12-16T11:10:33.258Z,5.04
2016-12-16T11:11:33.175Z,4.83
2016-12-16T11:12:33.163Z,4.96
2016-12-16T11:13:33.158Z,4.94
2016-12-16T11:14:33.164Z,4.98
2016-12-16T11:15:33.203Z,4.95
2016-12-16T11:16:33.204Z,5.01
2016-12-16T11:17:33.257Z,5.02
2016-12-16T11:18:33.182Z,4.95
2016-12-16T11:19:33.180Z,5.02
2016-12-16T11:20:33.246Z,5.04
2016-12-16T11:21:33.190Z,5.04
2016-12-16T11:22:33.172Z,5.07
2016-12-16T11:23:33.203Z,5.02
2016-12-16T11:24:33.181Z,5.05
2016-12-16T11:25:33.189Z,4.98
2016-12-16T11:26:33.211Z,5.01
2016-12-16T11:27:33.182Z,5.22
2016-12-16T11:28:33.301Z,5.05
2016-12-16T11:29:33.193Z,5.13
2016-12-16T11:30:33.228Z,5.19
2016-12-16T11:31:33.232Z,5.13
2016-12-16T11:32:33.808Z,5.16
2016-12-16T11:33:33.227Z,5.22
2016-12-16T11:34:33.217Z,5.07
2016-12-16T11:35:33.223Z,5.2
2016-12-16T11:36:33.195Z,5.05
2016-12-16T11:37:33.194Z,5.07
2016-12-16T11:38:33.272Z,5.2
2016-12-16T11:39:33.254Z,5.2
2016-12-16T11:40:33.202Z,5.1
2016-12-16T11:41:33.213Z,5.17
2016-12-16T11:42:33.225Z,5.12
2016-12-16T11:43:33.231Z,5.19
2016-12-16T11:44:33.223Z,5.19
2016-12-16T11:45:33.252Z,5.28
2016-12-16T11:46:33.207Z,5.25
2016-12-16T11:47:33.248Z,5.34
2016-12-16T11:48:33.220Z,5.25
2016-12-16T11:49:33.272Z,5.46
2016-12-16T11:50:33.234Z,5.22
2016-12-16T11:51:33.252Z,5.35
2016-12-16T11:52:33.223Z,5.27
2016-12-16T11:53:33.225Z,5.37
2016-12-16T11:54:33.214Z,5.41
2016-12-16T11:55:33.266Z,5.4
2016-12-16T11:56:33.231Z,5.32
2016-12-16T11:57:33.257Z,5.4
2016-12-16T11:58:33.336Z,5.35
2016-12-16T11:59:33.252Z,5.35
2016-12-16T12:00:33.250Z,5.43
2016-12-16T12:01:33.208Z,5.32
2016-12-16T12:02:33.340Z,5.55
2016-12-16T12:03:33.235Z,5.31
2016-12-16T12:04:33.246Z,5.49
2016-12-16T12:05:33.232Z,5.5
2016-12-16T12:06:33.261Z,5.5
2016-12-16T12:07:33.248Z,5.35
2016-12-16T12:08:33.259Z,5.49
2016-12-16T12:09:33.245Z,5.38
2016-12-16T12:10:33.248Z,5.5
2016-12-16T12:11:33.236Z,5.35
2016-12-16T12:12:33.239Z,5.59
2016-12-16T12:13:33.274Z,5.5
2016-12-16T12:14:33.265Z,5.45
2016-12-16T12:15:33.229Z,5.35
2016-12-16T12:16:33.257Z,5.53
2016-12-16T12:17:33.228Z,5.52
2016-12-16T12:18:33.270Z,5.64
2016-12-16T12:19:33.262Z,5.43
2016-12-16T12:20:33.318Z,5.45
2016-12-16T12:21:33.263Z,5.49
2016-12-16T12:22:33.252Z,5.75
2016-12-16T12:23:33.268Z,5.6
2016-12-16T12:24:33.545Z,5.4
2016-12-16T12:25:33.339Z,5.53
2016-12-16T12:26:33.257Z,5.57
2016-12-16T12:27:33.366Z,5.71
2016-12-16T12:28:33.259Z,5.6
2016-12-16T12:29:33.299Z,5.74
2016-12-16T12:30:33.249Z,5.56
2016-12-16T12:31:33.254Z,5.68
2016-12-16T12:32:33.249Z,5.57
2016-12-16T12:33:33.252Z,5.66
2016-12-16T12:34:33.306Z,5.64
2016-12-16T12:35:33.309Z,5.67
2016-12-16T12:36:33.823Z,5.73
2016-12-16T12:37:33.304Z,5.78
2016-12-16T12:38:33.318Z,5.68
2016-12-16T12:39:33.320Z,5.71
2016-12-16T12:40:33.578Z,5.6
2016-12-16T12:41:33.321Z,5.73
2016-12-16T12:42:33.282Z,5.66
2016-12-16T12:43:33.259Z,5.93
2016-12-16T12:44:33.300Z,5.78
2016-12-16T12:45:33.461Z,5.68
2016-12-16T12:46:33.359Z,5.67
2016-12-16T12:47:33.262Z,5.56
2016-12-16T12:48:33.283Z,5.67
2016-12-16T12:49:33.296Z,5.86
2016-12-16T12:50:33.310Z,5.75
2016-12-16T12:51:33.308Z,5.91
2016-12-16T12:52:33.279Z,5.73
2016-12-16T12:53:33.300Z,5.88
2016-12-16T12:54:33.289Z,5.64
2016-12-16T12:55:33.641Z,5.66
2016-12-16T12:56:33.315Z,5.7
2016-12-16T12:57:34.023Z,5.66
2016-12-16T12:58:33.294Z,5.57
2016-12-16T12:59:33.313Z,5.64
2016-12-16T13:00:33.472Z,5.66
2016-12-16T13:01:33.707Z,5.73
2016-12-16T13:02:33.311Z,5.83
2016-12-16T13:03:33.306Z,5.81
2016-12-16T13:04:33.341Z,5.67
2016-12-16T13:05:33.530Z,5.86
2016-12-16T13:06:33.367Z,5.85
2016-12-16T13:07:33.926Z,5.7
2016-12-16T13:08:33.326Z,5.77
2016-12-16T13:09:33.273Z,5.63
2016-12-16T13:10:33.341Z,5.89
2016-12-16T13:11:33.299Z,5.83
2016-12-16T13:12:34.068Z,5.67
2016-12-16T13:13:33.408Z,5.85
2016-12-16T13:14:33.684Z,5.86
2016-12-16T13:15:33.954Z,5.88
2016-12-16T13:16:33.318Z,5.89
2016-12-16T13:17:33.320Z,5.83
2016-12-16T13:18:33.558Z,5.75
2016-12-16T13:19:34.132Z,5.68
2016-12-16T13:20:33.323Z,5.86
2016-12-16T13:21:33.323Z,5.83